Flight Track Log - Related Links

Times and Time Zones

All times are in EDT time to prevent confusion due to time zone crossing. See the USC105 flight status page for this flight to view local times or setup timezone preferences in your user account.

Time Position Orientation Groundspeed Altitude Reporting Facility
EDT Latitude Longitude Course Direction KTS MPH feet Rate Location/Type
Tue 09:52:51 PM 39.8058 -82.9419 226° Southwest 94 108 1,200  Level Indianapolis Center
Tue 09:53:21 PM 39.7964 -82.9547 226° Southwest 90 104 1,800 1,050 Climbing Indianapolis Center
Tue 09:54:11 PM 39.7831 -82.9644 209° Southwest 86 99 2,600 649 Climbing Indianapolis Center
Tue 09:55:12 PM 39.8083 -82.9322 44° Northeast 156 180 3,000 455 Climbing Indianapolis Center
Tue 09:56:23 PM 39.8614 -82.8914 31° Northeast 183 211 3,600 393 Climbing Indianapolis Center
Tue 09:57:14 PM 39.8961 -82.8658 29° Northeast 178 205 3,800 269 Climbing Indianapolis Center
Tue 09:57:30 PM 39.9144 -82.8511 32° Northeast 194 223 3,900 387 Climbing Indianapolis Center
Tue 09:58:16 PM 39.9497 -82.8244 30° Northeast 186 214 4,200 455 Climbing Indianapolis Center
Tue 09:58:36 PM 39.9631 -82.8133 33° Northeast 185 213 4,400 492 Climbing Indianapolis Center
Tue 09:59:17 PM 39.9939 -82.7903 30° Northeast 186 214 4,700 537 Climbing Indianapolis Center
Tue 09:59:43 PM 40.0133 -82.7781 26° Northeast 177 204 5,000 590 Climbing Indianapolis Center
Tue 10:00:18 PM 40.0375 -82.7600 30° Northeast 177 204 5,300 590 Climbing Indianapolis Center
Tue 10:00:44 PM 40.0550 -82.7500 24° Northeast 175 201 5,600 590 Climbing Indianapolis Center
Tue 10:01:19 PM 40.0817 -82.7322 27° Northeast 175 201 5,900 537 Climbing Indianapolis Center
Tue 10:01:51 PM 40.1056 -82.7147 29° Northeast 177 204 6,200 484 Climbing Indianapolis Center
Tue 10:02:21 PM 40.1256 -82.6981 33° Northeast 180 207 6,400 433 Climbing Indianapolis Center
Tue 10:03:28 PM 40.1761 -82.6572 32° Northeast 186 214 6,900 234 Climbing Indianapolis Center
Tue 10:04:29 PM 40.2228 -82.6186 32° Northeast 200 230 6,900  Level Indianapolis Center
Tue 10:05:24 PM 40.2586 -82.5861 35° Northeast 200 230 6,900  Level Indianapolis Center
Tue 10:06:26 PM 40.3175 -82.5514 24° Northeast 197 227 6,900  Level Indianapolis Center
Tue 10:07:27 PM 40.3661 -82.5142 30° Northeast 200 230 6,900  Level Indianapolis Center
Tue 10:08:28 PM 40.4161 -82.4797 28° Northeast 200 230 6,900  Level Indianapolis Center
Tue 10:09:29 PM 40.4678 -82.4431 28° Northeast 207 238 6,900  Level Indianapolis Center
Tue 10:10:30 PM 40.5172 -82.3972 35° Northeast 214 246 6,900  Level Indianapolis Center
Tue 10:11:31 PM 40.5694 -82.3597 29° Northeast 212 244 6,900  Level Indianapolis Center
Tue 10:12:32 PM 40.6231 -82.3264 25° Northeast 211 243 6,900  Level Indianapolis Center
Tue 10:13:34 PM 40.6744 -82.2886 29° Northeast 210 242 6,900  Level Indianapolis Center
Tue 10:14:35 PM 40.7272 -82.2586 23° Northeast 205 236 6,900  Level Indianapolis Center
Tue 10:14:54 PM 40.7469 -82.2494 19° North 203 234 6,900  Level Cleveland Center
Tue 10:15:48 PM 40.7892 -82.2150 32° Northeast 206 237 6,900  Level Cleveland Center
Tue 10:16:49 PM 40.8397 -82.1778 29° Northeast 202 232 6,900  Level Cleveland Center
Tue 10:17:50 PM 40.8903 -82.1406 29° Northeast 209 241 6,900  Level Cleveland Center
Tue 10:18:50 PM 40.9389 -82.1003 32° Northeast 208 239 6,900  Level Cleveland Center
Tue 10:19:51 PM 40.9914 -82.0658 26° Northeast 203 234 6,900  Level Cleveland Center
Tue 10:20:45 PM 41.0336 -82.0311 32° Northeast 206 237 6,900  Level Cleveland Center
Tue 10:21:58 PM 41.0944 -81.9856 29° Northeast 202 232 6,900 -179 Level Cleveland Center
Tue 10:22:59 PM 41.1308 -81.9172 55° Northeast 235 270 6,500 -446 Descending Cleveland Center
Tue 10:23:59 PM 41.1650 -81.8492 56° Northeast 224 258 6,000 -496 Descending Cleveland Center
Tue 10:25:00 PM 41.2053 -81.7864 50° Northeast 225 259 5,500 -492 Descending Cleveland Center
Tue 10:26:01 PM 41.2456 -81.7208 51° Northeast 230 265 5,000 -545 Descending Cleveland Center
Tue 10:27:01 PM 41.2839 -81.6469 55° Northeast 230 265 4,400 -595 Descending Cleveland Center
Tue 10:28:02 PM 41.3364 -81.6036 32° Northeast 217 250 3,800 -724 Descending Cleveland Center
Tue 10:28:57 PM 41.3883 -81.5961 North 204 235 3,000 -843 Descending Cleveland Center
Tue 10:30:03 PM 41.4489 -81.5997 357° North 199 229 2,100 -520 Descending Cleveland Center
Tue 10:31:04 PM 41.4967 -81.6117 349° North 172 198 1,900 -197 Descending Cleveland Center

Login

Don't have an account? Register now (free) for customized features, flight alerts, and more!